sensor_id;sensor_type;location;lat;lon;timestamp;temperature;humidity
51305;HTU21D;37392;50.964;6.952;2023-06-22T00:01:53;22.96;69.40
51305;HTU21D;37392;50.964;6.952;2023-06-22T00:04:19;22.97;69.40
51305;HTU21D;37392;50.964;6.952;2023-06-22T00:06:44;22.97;69.36
51305;HTU21D;37392;50.964;6.952;2023-06-22T00:09:10;22.92;69.55
51305;HTU21D;37392;50.964;6.952;2023-06-22T00:11:36;22.87;69.78
51305;HTU21D;37392;50.964;6.952;2023-06-22T00:14:03;22.90;69.78
51305;HTU21D;37392;50.964;6.952;2023-06-22T00:16:29;22.90;69.53
51305;HTU21D;37392;50.964;6.952;2023-06-22T00:18:55;22.88;69.71
51305;HTU21D;37392;50.964;6.952;2023-06-22T00:21:21;22.83;69.87
51305;HTU21D;37392;50.964;6.952;2023-06-22T00:23:46;22.79;70.09
51305;HTU21D;37392;50.964;6.952;2023-06-22T00:26:13;22.73;70.19
51305;HTU21D;37392;50.964;6.952;2023-06-22T00:28:39;22.71;70.33
51305;HTU21D;37392;50.964;6.952;2023-06-22T00:31:04;22.71;70.41
51305;HTU21D;37392;50.964;6.952;2023-06-22T00:33:30;22.70;70.40
51305;HTU21D;37392;50.964;6.952;2023-06-22T00:35:56;22.71;70.35
51305;HTU21D;37392;50.964;6.952;2023-06-22T00:38:22;22.71;70.44
51305;HTU21D;37392;50.964;6.952;2023-06-22T00:40:48;22.71;70.51
51305;HTU21D;37392;50.964;6.952;2023-06-22T00:43:14;22.70;70.48
51305;HTU21D;37392;50.964;6.952;2023-06-22T00:45:39;22.69;70.43
51305;HTU21D;37392;50.964;6.952;2023-06-22T00:48:06;22.71;70.40
51305;HTU21D;37392;50.964;6.952;2023-06-22T00:50:33;22.72;70.41
51305;HTU21D;37392;50.964;6.952;2023-06-22T00:53:03;22.73;70.42
51305;HTU21D;37392;50.964;6.952;2023-06-22T00:55:43;22.72;70.34
51305;HTU21D;37392;50.964;6.952;2023-06-22T00:58:11;22.71;70.41
51305;HTU21D;37392;50.964;6.952;2023-06-22T01:00:38;22.73;70.32
51305;HTU21D;37392;50.964;6.952;2023-06-22T01:03:04;22.70;70.22
51305;HTU21D;37392;50.964;6.952;2023-06-22T01:05:34;22.71;70.14
51305;HTU21D;37392;50.964;6.952;2023-06-22T01:11:07;22.66;70.30
51305;HTU21D;37392;50.964;6.952;2023-06-22T01:13:47;22.65;70.38
51305;HTU21D;37392;50.964;6.952;2023-06-22T01:16:25;22.65;70.35
51305;HTU21D;37392;50.964;6.952;2023-06-22T01:18:55;22.61;70.39
51305;HTU21D;37392;50.964;6.952;2023-06-22T01:21:23;22.62;70.46
51305;HTU21D;37392;50.964;6.952;2023-06-22T01:29:49;22.53;70.90
51305;HTU21D;37392;50.964;6.952;2023-06-22T01:32:18;22.53;70.99
51305;HTU21D;37392;50.964;6.952;2023-06-22T01:34:45;22.54;70.99
51305;HTU21D;37392;50.964;6.952;2023-06-22T01:37:12;22.48;71.13
51305;HTU21D;37392;50.964;6.952;2023-06-22T01:39:38;22.48;71.23
51305;HTU21D;37392;50.964;6.952;2023-06-22T01:42:05;22.48;71.29
51305;HTU21D;37392;50.964;6.952;2023-06-22T01:44:30;22.46;71.29
51305;HTU21D;37392;50.964;6.952;2023-06-22T01:46:56;22.43;71.26
51305;HTU21D;37392;50.964;6.952;2023-06-22T01:49:22;22.44;71.09
51305;HTU21D;37392;50.964;6.952;2023-06-22T01:51:48;22.42;71.17
51305;HTU21D;37392;50.964;6.952;2023-06-22T01:54:14;22.42;71.23
51305;HTU21D;37392;50.964;6.952;2023-06-22T01:56:39;22.41;71.48
51305;HTU21D;37392;50.964;6.952;2023-06-22T01:59:20;22.39;71.58
51305;HTU21D;37392;50.964;6.952;2023-06-22T02:02:00;22.38;71.55
51305;HTU21D;37392;50.964;6.952;2023-06-22T02:04:34;22.36;71.57
51305;HTU21D;37392;50.964;6.952;2023-06-22T02:10:43;22.32;71.47
51305;HTU21D;37392;50.964;6.952;2023-06-22T02:13:11;22.26;71.48
51305;HTU21D;37392;50.964;6.952;2023-06-22T02:15:38;22.23;71.48
51305;HTU21D;37392;50.964;6.952;2023-06-22T02:18:03;22.23;71.66
51305;HTU21D;37392;50.964;6.952;2023-06-22T02:20:30;22.21;71.81
51305;HTU21D;37392;50.964;6.952;2023-06-22T02:22:56;22.18;71.77
51305;HTU21D;37392;50.964;6.952;2023-06-22T02:25:21;22.17;71.85
51305;HTU21D;37392;50.964;6.952;2023-06-22T02:27:47;22.13;71.80
51305;HTU21D;37392;50.964;6.952;2023-06-22T02:30:13;22.13;71.91
51305;HTU21D;37392;50.964;6.952;2023-06-22T02:32:41;22.18;71.92
51305;HTU21D;37392;50.964;6.952;2023-06-22T02:35:08;22.20;71.67
51305;HTU21D;37392;50.964;6.952;2023-06-22T02:37:37;22.20;71.69
51305;HTU21D;37392;50.964;6.952;2023-06-22T02:40:08;22.19;71.69
51305;HTU21D;37392;50.964;6.952;2023-06-22T02:42:35;22.22;71.58
51305;HTU21D;37392;50.964;6.952;2023-06-22T02:45:01;22.21;71.51
51305;HTU21D;37392;50.964;6.952;2023-06-22T02:47:26;22.20;71.73
51305;HTU21D;37392;50.964;6.952;2023-06-22T02:49:52;22.20;71.71
51305;HTU21D;37392;50.964;6.952;2023-06-22T02:52:18;22.18;71.58
51305;HTU21D;37392;50.964;6.952;2023-06-22T02:54:43;22.16;71.76
51305;HTU21D;37392;50.964;6.952;2023-06-22T02:57:11;22.11;71.89
51305;HTU21D;37392;50.964;6.952;2023-06-22T02:59:42;22.09;71.97
51305;HTU21D;37392;50.964;6.952;2023-06-22T03:02:08;22.13;71.99
51305;HTU21D;37392;50.964;6.952;2023-06-22T03:04:37;22.08;71.96
51305;HTU21D;37392;50.964;6.952;2023-06-22T03:07:03;22.02;72.13
51305;HTU21D;37392;50.964;6.952;2023-06-22T03:09:29;21.97;72.22
51305;HTU21D;37392;50.964;6.952;2023-06-22T03:11:55;21.96;72.48
51305;HTU21D;37392;50.964;6.952;2023-06-22T03:14:21;21.89;72.47
51305;HTU21D;37392;50.964;6.952;2023-06-22T03:16:46;21.89;72.61
51305;HTU21D;37392;50.964;6.952;2023-06-22T03:19:12;21.92;72.60
51305;HTU21D;37392;50.964;6.952;2023-06-22T03:21:39;21.89;72.52
51305;HTU21D;37392;50.964;6.952;2023-06-22T03:24:06;21.95;72.60
51305;HTU21D;37392;50.964;6.952;2023-06-22T03:26:32;21.99;72.37
51305;HTU21D;37392;50.964;6.952;2023-06-22T03:28:57;22.03;72.22
51305;HTU21D;37392;50.964;6.952;2023-06-22T03:31:23;22.05;72.22
51305;HTU21D;37392;50.964;6.952;2023-06-22T03:33:49;22.07;72.21
51305;HTU21D;37392;50.964;6.952;2023-06-22T03:36:16;22.06;72.24
51305;HTU21D;37392;50.964;6.952;2023-06-22T03:38:46;22.06;72.25
51305;HTU21D;37392;50.964;6.952;2023-06-22T03:41:12;22.05;72.28
51305;HTU21D;37392;50.964;6.952;2023-06-22T03:43:38;22.08;72.74
51305;HTU21D;37392;50.964;6.952;2023-06-22T03:46:04;22.05;73.61
51305;HTU21D;37392;50.964;6.952;2023-06-22T03:48:30;22.01;75.76
51305;HTU21D;37392;50.964;6.952;2023-06-22T03:50:55;21.92;76.43
51305;HTU21D;37392;50.964;6.952;2023-06-22T03:53:21;21.83;76.61
51305;HTU21D;37392;50.964;6.952;2023-06-22T03:55:51;21.80;75.69
51305;HTU21D;37392;50.964;6.952;2023-06-22T03:58:18;21.81;75.14
51305;HTU21D;37392;50.964;6.952;2023-06-22T04:00:49;21.85;74.89
51305;HTU21D;37392;50.964;6.952;2023-06-22T04:03:16;21.94;74.44
51305;HTU21D;37392;50.964;6.952;2023-06-22T04:05:44;21.99;74.54
51305;HTU21D;37392;50.964;6.952;2023-06-22T04:08:12;22.05;74.47
51305;HTU21D;37392;50.964;6.952;2023-06-22T04:10:38;22.08;74.53
51305;HTU21D;37392;50.964;6.952;2023-06-22T04:13:04;22.12;74.61
51305;HTU21D;37392;50.964;6.952;2023-06-22T04:15:29;22.18;74.58
51305;HTU21D;37392;50.964;6.952;2023-06-22T04:17:55;22.21;74.54
51305;HTU21D;37392;50.964;6.952;2023-06-22T04:20:21;22.29;74.46
51305;HTU21D;37392;50.964;6.952;2023-06-22T04:22:47;22.35;74.56
51305;HTU21D;37392;50.964;6.952;2023-06-22T04:25:14;22.38;74.65
51305;HTU21D;37392;50.964;6.952;2023-06-22T04:27:39;22.42;74.72
51305;HTU21D;37392;50.964;6.952;2023-06-22T04:30:08;22.44;75.25
51305;HTU21D;37392;50.964;6.952;2023-06-22T04:32:34;22.43;75.45
51305;HTU21D;37392;50.964;6.952;2023-06-22T04:35:05;22.47;75.99
51305;HTU21D;37392;50.964;6.952;2023-06-22T04:37:32;22.44;76.28
51305;HTU21D;37392;50.964;6.952;2023-06-22T04:39:58;22.42;76.77
51305;HTU21D;37392;50.964;6.952;2023-06-22T04:42:28;22.43;77.51
51305;HTU21D;37392;50.964;6.952;2023-06-22T04:44:53;22.43;77.66
51305;HTU21D;37392;50.964;6.952;2023-06-22T04:47:19;22.44;77.66
51305;HTU21D;37392;50.964;6.952;2023-06-22T04:49:45;22.49;77.86
51305;HTU21D;37392;50.964;6.952;2023-06-22T04:52:12;22.48;78.27
51305;HTU21D;37392;50.964;6.952;2023-06-22T04:54:40;22.49;79.00
51305;HTU21D;37392;50.964;6.952;2023-06-22T04:57:13;22.46;79.51
51305;HTU21D;37392;50.964;6.952;2023-06-22T04:59:40;22.48;79.14
51305;HTU21D;37392;50.964;6.952;2023-06-22T05:02:07;22.47;79.17
51305;HTU21D;37392;50.964;6.952;2023-06-22T05:04:33;22.46;79.51
51305;HTU21D;37392;50.964;6.952;2023-06-22T05:07:02;22.38;81.51
51305;HTU21D;37392;50.964;6.952;2023-06-22T05:09:28;22.28;85.12
51305;HTU21D;37392;50.964;6.952;2023-06-22T05:11:55;21.92;88.54
51305;HTU21D;37392;50.964;6.952;2023-06-22T05:14:22;21.69;91.04
51305;HTU21D;37392;50.964;6.952;2023-06-22T05:16:48;21.57;92.65
51305;HTU21D;37392;50.964;6.952;2023-06-22T05:19:14;21.46;91.69
51305;HTU21D;37392;50.964;6.952;2023-06-22T05:21:40;21.48;91.04
51305;HTU21D;37392;50.964;6.952;2023-06-22T05:24:06;21.58;90.39
51305;HTU21D;37392;50.964;6.952;2023-06-22T05:26:33;21.72;88.96
51305;HTU21D;37392;50.964;6.952;2023-06-22T05:29:00;21.84;87.27
51305;HTU21D;37392;50.964;6.952;2023-06-22T05:31:26;21.95;86.32
51305;HTU21D;37392;50.964;6.952;2023-06-22T05:33:53;22.11;85.61
51305;HTU21D;37392;50.964;6.952;2023-06-22T05:36:19;22.22;84.54
51305;HTU21D;37392;50.964;6.952;2023-06-22T05:38:46;22.35;83.87
51305;HTU21D;37392;50.964;6.952;2023-06-22T05:41:12;22.47;83.26
51305;HTU21D;37392;50.964;6.952;2023-06-22T05:43:38;22.61;82.77
51305;HTU21D;37392;50.964;6.952;2023-06-22T05:46:04;22.75;82.27
51305;HTU21D;37392;50.964;6.952;2023-06-22T05:48:30;22.94;81.30
51305;HTU21D;37392;50.964;6.952;2023-06-22T05:50:56;23.10;80.59
51305;HTU21D;37392;50.964;6.952;2023-06-22T05:53:21;23.38;79.95
51305;HTU21D;37392;50.964;6.952;2023-06-22T05:55:48;23.58;78.97
51305;HTU21D;37392;50.964;6.952;2023-06-22T05:58:13;23.77;78.16
51305;HTU21D;37392;50.964;6.952;2023-06-22T06:00:39;24.12;77.23
51305;HTU21D;37392;50.964;6.952;2023-06-22T06:03:07;24.82;75.76
51305;HTU21D;37392;50.964;6.952;2023-06-22T06:05:34;26.28;70.50
51305;HTU21D;37392;50.964;6.952;2023-06-22T06:08:01;27.64;65.90
51305;HTU21D;37392;50.964;6.952;2023-06-22T06:10:28;28.69;62.52
51305;HTU21D;37392;50.964;6.952;2023-06-22T06:12:55;29.58;59.81
51305;HTU21D;37392;50.964;6.952;2023-06-22T06:15:21;29.82;58.69
51305;HTU21D;37392;50.964;6.952;2023-06-22T06:17:51;30.68;56.52
51305;HTU21D;37392;50.964;6.952;2023-06-22T06:20:19;30.86;56.23
51305;HTU21D;37392;50.964;6.952;2023-06-22T06:22:48;31.16;55.41
51305;HTU21D;37392;50.964;6.952;2023-06-22T06:25:15;30.21;56.78
51305;HTU21D;37392;50.964;6.952;2023-06-22T06:27:44;30.02;57.88
51305;HTU21D;37392;50.964;6.952;2023-06-22T06:30:11;29.74;59.09
51305;HTU21D;37392;50.964;6.952;2023-06-22T06:32:38;29.61;59.63
51305;HTU21D;37392;50.964;6.952;2023-06-22T06:35:08;29.72;59.73
51305;HTU21D;37392;50.964;6.952;2023-06-22T06:37:38;29.65;59.75
51305;HTU21D;37392;50.964;6.952;2023-06-22T06:40:05;29.82;59.85
51305;HTU21D;37392;50.964;6.952;2023-06-22T06:42:39;30.51;58.22
51305;HTU21D;37392;50.964;6.952;2023-06-22T06:45:18;30.97;56.51
51305;HTU21D;37392;50.964;6.952;2023-06-22T06:47:45;31.36;56.16
51305;HTU21D;37392;50.964;6.952;2023-06-22T06:50:11;31.30;55.84
51305;HTU21D;37392;50.964;6.952;2023-06-22T06:52:37;31.11;56.64
51305;HTU21D;37392;50.964;6.952;2023-06-22T06:55:03;31.28;56.26
51305;HTU21D;37392;50.964;6.952;2023-06-22T06:57:40;31.00;56.95
51305;HTU21D;37392;50.964;6.952;2023-06-22T07:00:07;30.63;57.42
51305;HTU21D;37392;50.964;6.952;2023-06-22T07:02:38;30.71;57.84
51305;HTU21D;37392;50.964;6.952;2023-06-22T07:05:05;30.99;57.07
51305;HTU21D;37392;50.964;6.952;2023-06-22T07:07:31;30.95;56.55
51305;HTU21D;37392;50.964;6.952;2023-06-22T07:09:57;30.77;56.84
51305;HTU21D;37392;50.964;6.952;2023-06-22T07:12:23;30.78;57.07
51305;HTU21D;37392;50.964;6.952;2023-06-22T07:14:49;30.85;57.35
51305;HTU21D;37392;50.964;6.952;2023-06-22T07:17:15;31.38;56.35
51305;HTU21D;37392;50.964;6.952;2023-06-22T07:19:41;32.88;53.57
51305;HTU21D;37392;50.964;6.952;2023-06-22T07:22:07;33.52;50.75
51305;HTU21D;37392;50.964;6.952;2023-06-22T07:24:33;34.21;49.50
51305;HTU21D;37392;50.964;6.952;2023-06-22T07:26:58;34.25;48.66
51305;HTU21D;37392;50.964;6.952;2023-06-22T07:29:25;34.73;48.52
51305;HTU21D;37392;50.964;6.952;2023-06-22T07:31:52;35.11;47.12
51305;HTU21D;37392;50.964;6.952;2023-06-22T07:34:18;35.21;47.01
51305;HTU21D;37392;50.964;6.952;2023-06-22T07:36:45;34.94;47.25
51305;HTU21D;37392;50.964;6.952;2023-06-22T07:39:11;35.25;46.41
51305;HTU21D;37392;50.964;6.952;2023-06-22T07:41:39;34.96;46.73
51305;HTU21D;37392;50.964;6.952;2023-06-22T07:44:06;34.14;48.62
51305;HTU21D;37392;50.964;6.952;2023-06-22T07:46:32;33.28;50.72
51305;HTU21D;37392;50.964;6.952;2023-06-22T07:48:58;32.81;52.06
51305;HTU21D;37392;50.964;6.952;2023-06-22T07:51:24;33.07;51.88
51305;HTU21D;37392;50.964;6.952;2023-06-22T07:53:50;33.61;51.35
51305;HTU21D;37392;50.964;6.952;2023-06-22T07:56:16;34.11;50.15
51305;HTU21D;37392;50.964;6.952;2023-06-22T07:58:45;34.73;48.65
51305;HTU21D;37392;50.964;6.952;2023-06-22T08:01:12;36.06;46.42
51305;HTU21D;37392;50.964;6.952;2023-06-22T08:03:38;36.74;45.06
51305;HTU21D;37392;50.964;6.952;2023-06-22T08:06:04;37.37;43.86
51305;HTU21D;37392;50.964;6.952;2023-06-22T08:08:31;37.80;43.09
51305;HTU21D;37392;50.964;6.952;2023-06-22T08:10:57;37.65;42.71
51305;HTU21D;37392;50.964;6.952;2023-06-22T08:13:22;37.57;42.54
51305;HTU21D;37392;50.964;6.952;2023-06-22T08:15:48;37.50;42.50
51305;HTU21D;37392;50.964;6.952;2023-06-22T08:18:14;37.77;42.13
51305;HTU21D;37392;50.964;6.952;2023-06-22T08:20:39;38.02;41.19
51305;HTU21D;37392;50.964;6.952;2023-06-22T08:23:05;37.65;42.33
51305;HTU21D;37392;50.964;6.952;2023-06-22T08:25:32;37.05;42.80
51305;HTU21D;37392;50.964;6.952;2023-06-22T08:28:00;36.96;43.67
51305;HTU21D;37392;50.964;6.952;2023-06-22T08:30:26;37.56;43.06
51305;HTU21D;37392;50.964;6.952;2023-06-22T08:32:51;38.22;41.79
51305;HTU21D;37392;50.964;6.952;2023-06-22T08:35:17;38.37;41.63
51305;HTU21D;37392;50.964;6.952;2023-06-22T08:37:43;38.15;41.49
51305;HTU21D;37392;50.964;6.952;2023-06-22T08:40:09;38.41;41.25
51305;HTU21D;37392;50.964;6.952;2023-06-22T08:42:36;38.44;40.97
51305;HTU21D;37392;50.964;6.952;2023-06-22T08:45:03;38.22;41.39
51305;HTU21D;37392;50.964;6.952;2023-06-22T08:47:29;38.62;41.04
51305;HTU21D;37392;50.964;6.952;2023-06-22T08:49:54;38.82;40.71
51305;HTU21D;37392;50.964;6.952;2023-06-22T08:52:20;38.11;41.80
51305;HTU21D;37392;50.964;6.952;2023-06-22T08:54:46;37.54;42.66
51305;HTU21D;37392;50.964;6.952;2023-06-22T08:57:12;37.89;42.20
51305;HTU21D;37392;50.964;6.952;2023-06-22T08:59:38;37.41;42.94
51305;HTU21D;37392;50.964;6.952;2023-06-22T09:02:05;36.81;44.03
51305;HTU21D;37392;50.964;6.952;2023-06-22T09:04:31;36.44;44.96
51305;HTU21D;37392;50.964;6.952;2023-06-22T09:07:00;35.87;46.15
51305;HTU21D;37392;50.964;6.952;2023-06-22T09:09:26;36.28;45.74
51305;HTU21D;37392;50.964;6.952;2023-06-22T09:11:52;36.77;44.79
51305;HTU21D;37392;50.964;6.952;2023-06-22T09:14:18;36.90;44.48
51305;HTU21D;37392;50.964;6.952;2023-06-22T09:16:43;36.51;45.06
51305;HTU21D;37392;50.964;6.952;2023-06-22T09:19:09;36.40;44.86
51305;HTU21D;37392;50.964;6.952;2023-06-22T09:21:36;36.54;45.29
51305;HTU21D;37392;50.964;6.952;2023-06-22T09:24:02;36.83;44.80
51305;HTU21D;37392;50.964;6.952;2023-06-22T09:26:28;36.24;44.85
51305;HTU21D;37392;50.964;6.952;2023-06-22T09:28:54;35.62;45.98
51305;HTU21D;37392;50.964;6.952;2023-06-22T09:31:19;34.84;46.99
51305;HTU21D;37392;50.964;6.952;2023-06-22T09:33:54;34.39;48.35
51305;HTU21D;37392;50.964;6.952;2023-06-22T09:36:22;34.45;48.23
51305;HTU21D;37392;50.964;6.952;2023-06-22T09:38:49;34.18;48.58
51305;HTU21D;37392;50.964;6.952;2023-06-22T09:41:21;34.56;48.28
51305;HTU21D;37392;50.964;6.952;2023-06-22T09:43:48;34.81;47.40
51305;HTU21D;37392;50.964;6.952;2023-06-22T09:46:15;35.34;46.63
51305;HTU21D;37392;50.964;6.952;2023-06-22T09:48:41;36.06;45.32
51305;HTU21D;37392;50.964;6.952;2023-06-22T09:51:06;36.31;44.22
51305;HTU21D;37392;50.964;6.952;2023-06-22T09:53:32;36.11;44.99
51305;HTU21D;37392;50.964;6.952;2023-06-22T09:55:57;35.88;45.42
51305;HTU21D;37392;50.964;6.952;2023-06-22T09:58:23;35.36;46.23
51305;HTU21D;37392;50.964;6.952;2023-06-22T10:00:48;34.92;46.76
51305;HTU21D;37392;50.964;6.952;2023-06-22T10:03:14;34.76;47.15
51305;HTU21D;37392;50.964;6.952;2023-06-22T10:05:40;34.55;47.90
51305;HTU21D;37392;50.964;6.952;2023-06-22T10:08:05;34.57;47.97
51305;HTU21D;37392;50.964;6.952;2023-06-22T10:10:33;33.57;49.56
51305;HTU21D;37392;50.964;6.952;2023-06-22T10:13:06;32.79;51.10
51305;HTU21D;37392;50.964;6.952;2023-06-22T10:15:36;32.37;56.87
51305;HTU21D;37392;50.964;6.952;2023-06-22T10:18:02;31.42;64.87
51305;HTU21D;37392;50.964;6.952;2023-06-22T10:20:28;30.62;62.30
51305;HTU21D;37392;50.964;6.952;2023-06-22T10:22:53;30.13;61.21
51305;HTU21D;37392;50.964;6.952;2023-06-22T10:25:19;30.03;62.22
51305;HTU21D;37392;50.964;6.952;2023-06-22T10:27:46;30.08;66.33
51305;HTU21D;37392;50.964;6.952;2023-06-22T10:30:12;29.82;70.00
51305;HTU21D;37392;50.964;6.952;2023-06-22T10:32:39;29.29;77.34
51305;HTU21D;37392;50.964;6.952;2023-06-22T10:35:05;28.29;79.76
51305;HTU21D;37392;50.964;6.952;2023-06-22T10:37:31;27.24;89.57
51305;HTU21D;37392;50.964;6.952;2023-06-22T10:39:57;26.24;100.19
51305;HTU21D;37392;50.964;6.952;2023-06-22T10:42:23;25.89;108.97
51305;HTU21D;37392;50.964;6.952;2023-06-22T10:44:49;25.50;111.89
51305;HTU21D;37392;50.964;6.952;2023-06-22T10:47:14;25.28;117.04
51305;HTU21D;37392;50.964;6.952;2023-06-22T10:49:40;25.32;118.79
51305;HTU21D;37392;50.964;6.952;2023-06-22T10:52:07;24.82;118.33
51305;HTU21D;37392;50.964;6.952;2023-06-22T10:54:34;24.51;-4.48
51305;HTU21D;37392;50.964;6.952;2023-06-22T10:57:01;24.31;-3.60
51305;HTU21D;37392;50.964;6.952;2023-06-22T10:59:27;24.12;-2.33
51305;HTU21D;37392;50.964;6.952;2023-06-22T11:01:55;24.15;-0.22
51305;HTU21D;37392;50.964;6.952;2023-06-22T11:04:21;24.10;-0.59
51305;HTU21D;37392;50.964;6.952;2023-06-22T11:06:48;24.00;1.31
51305;HTU21D;37392;50.964;6.952;2023-06-22T11:09:14;23.98;1.13
51305;HTU21D;37392;50.964;6.952;2023-06-22T11:11:44;23.91;1.36
51305;HTU21D;37392;50.964;6.952;2023-06-22T11:14:10;23.72;0.73
51305;HTU21D;37392;50.964;6.952;2023-06-22T11:16:36;23.21;-3.79
51305;HTU21D;37392;50.964;6.952;2023-06-22T11:19:02;23.06;-0.56
51305;HTU21D;37392;50.964;6.952;2023-06-22T11:21:28;23.02;0.92
51305;HTU21D;37392;50.964;6.952;2023-06-22T11:23:54;23.10;2.09
51305;HTU21D;37392;50.964;6.952;2023-06-22T11:26:19;23.21;2.23
51305;HTU21D;37392;50.964;6.952;2023-06-22T11:28:46;23.71;3.96
51305;HTU21D;37392;50.964;6.952;2023-06-22T11:31:12;23.99;3.86
51305;HTU21D;37392;50.964;6.952;2023-06-22T11:33:37;23.54;-1.12
51305;HTU21D;37392;50.964;6.952;2023-06-22T11:36:03;23.43;-0.18
51305;HTU21D;37392;50.964;6.952;2023-06-22T11:38:29;23.52;0.65
51305;HTU21D;37392;50.964;6.952;2023-06-22T11:40:57;23.74;2.05
51305;HTU21D;37392;50.964;6.952;2023-06-22T11:43:23;23.74;1.79
51305;HTU21D;37392;50.964;6.952;2023-06-22T11:45:50;23.45;0.09
51305;HTU21D;37392;50.964;6.952;2023-06-22T11:48:16;23.44;0.89
51305;HTU21D;37392;50.964;6.952;2023-06-22T11:50:41;23.40;1.27
51305;HTU21D;37392;50.964;6.952;2023-06-22T11:53:07;23.26;1.72
51305;HTU21D;37392;50.964;6.952;2023-06-22T11:55:32;23.47;3.40
51305;HTU21D;37392;50.964;6.952;2023-06-22T11:57:58;23.59;2.06
51305;HTU21D;37392;50.964;6.952;2023-06-22T12:00:26;23.82;1.93
51305;HTU21D;37392;50.964;6.952;2023-06-22T12:02:52;24.03;2.52
51305;HTU21D;37392;50.964;6.952;2023-06-22T12:05:20;24.10;2.61
51305;HTU21D;37392;50.964;6.952;2023-06-22T12:07:46;24.49;3.91
51305;HTU21D;37392;50.964;6.952;2023-06-22T12:10:12;24.68;-0.93
51305;HTU21D;37392;50.964;6.952;2023-06-22T12:12:38;24.97;-4.18
51305;HTU21D;37392;50.964;6.952;2023-06-22T12:15:04;24.69;117.57
51305;HTU21D;37392;50.964;6.952;2023-06-22T12:17:30;24.79;115.33
51305;HTU21D;37392;50.964;6.952;2023-06-22T12:19:56;24.63;112.21
51305;HTU21D;37392;50.964;6.952;2023-06-22T12:22:22;24.55;112.29
51305;HTU21D;37392;50.964;6.952;2023-06-22T12:24:47;24.61;110.92
51305;HTU21D;37392;50.964;6.952;2023-06-22T12:27:13;24.66;110.67
51305;HTU21D;37392;50.964;6.952;2023-06-22T12:29:41;24.71;109.25
51305;HTU21D;37392;50.964;6.952;2023-06-22T12:32:07;24.85;109.38
51305;HTU21D;37392;50.964;6.952;2023-06-22T12:34:33;25.06;107.55
51305;HTU21D;37392;50.964;6.952;2023-06-22T12:36:58;25.44;104.05
51305;HTU21D;37392;50.964;6.952;2023-06-22T12:39:24;25.90;102.70
51305;HTU21D;37392;50.964;6.952;2023-06-22T12:41:49;26.48;100.61
51305;HTU21D;37392;50.964;6.952;2023-06-22T12:44:15;26.62;99.90
51305;HTU21D;37392;50.964;6.952;2023-06-22T12:46:40;26.52;96.65
51305;HTU21D;37392;50.964;6.952;2023-06-22T12:49:06;26.76;98.71
51305;HTU21D;37392;50.964;6.952;2023-06-22T12:51:31;26.77;95.43
51305;HTU21D;37392;50.964;6.952;2023-06-22T12:53:57;26.52;96.08
51305;HTU21D;37392;50.964;6.952;2023-06-22T12:56:23;26.67;97.46
51305;HTU21D;37392;50.964;6.952;2023-06-22T12:58:48;26.84;96.76
51305;HTU21D;37392;50.964;6.952;2023-06-22T13:01:14;26.84;94.95
51305;HTU21D;37392;50.964;6.952;2023-06-22T13:03:40;26.57;95.15
51305;HTU21D;37392;50.964;6.952;2023-06-22T13:06:06;26.81;95.97
51305;HTU21D;37392;50.964;6.952;2023-06-22T13:08:32;27.17;93.66
51305;HTU21D;37392;50.964;6.952;2023-06-22T13:10:58;27.35;91.46
51305;HTU21D;37392;50.964;6.952;2023-06-22T13:13:23;27.52;89.36
51305;HTU21D;37392;50.964;6.952;2023-06-22T13:15:50;27.13;90.39
51305;HTU21D;37392;50.964;6.952;2023-06-22T13:18:18;27.31;89.25
51305;HTU21D;37392;50.964;6.952;2023-06-22T13:20:43;27.31;86.35
51305;HTU21D;37392;50.964;6.952;2023-06-22T13:23:10;27.16;85.94
51305;HTU21D;37392;50.964;6.952;2023-06-22T13:25:36;27.01;86.28
51305;HTU21D;37392;50.964;6.952;2023-06-22T13:28:02;27.02;85.67
51305;HTU21D;37392;50.964;6.952;2023-06-22T13:30:27;27.31;85.22
51305;HTU21D;37392;50.964;6.952;2023-06-22T13:32:53;27.38;83.80
51305;HTU21D;37392;50.964;6.952;2023-06-22T13:35:18;27.31;82.79
51305;HTU21D;37392;50.964;6.952;2023-06-22T13:37:44;27.42;83.29
51305;HTU21D;37392;50.964;6.952;2023-06-22T13:40:10;27.56;83.07
51305;HTU21D;37392;50.964;6.952;2023-06-22T13:42:36;27.58;81.14
51305;HTU21D;37392;50.964;6.952;2023-06-22T13:45:02;27.63;80.51
51305;HTU21D;37392;50.964;6.952;2023-06-22T13:47:29;27.76;80.57
51305;HTU21D;37392;50.964;6.952;2023-06-22T13:49:55;27.71;80.20
51305;HTU21D;37392;50.964;6.952;2023-06-22T13:52:21;27.82;79.91
51305;HTU21D;37392;50.964;6.952;2023-06-22T13:54:46;28.00;79.54
51305;HTU21D;37392;50.964;6.952;2023-06-22T13:57:12;27.82;79.59
51305;HTU21D;37392;50.964;6.952;2023-06-22T13:59:37;28.01;79.24
51305;HTU21D;37392;50.964;6.952;2023-06-22T14:02:03;28.16;77.46
51305;HTU21D;37392;50.964;6.952;2023-06-22T14:04:29;28.16;76.79
51305;HTU21D;37392;50.964;6.952;2023-06-22T14:06:55;28.12;77.53
51305;HTU21D;37392;50.964;6.952;2023-06-22T14:09:21;28.20;78.01
51305;HTU21D;37392;50.964;6.952;2023-06-22T14:11:46;28.38;76.76
51305;HTU21D;37392;50.964;6.952;2023-06-22T14:14:12;28.34;75.98
51305;HTU21D;37392;50.964;6.952;2023-06-22T14:16:37;28.52;74.89
51305;HTU21D;37392;50.964;6.952;2023-06-22T14:19:03;28.63;74.56
51305;HTU21D;37392;50.964;6.952;2023-06-22T14:21:28;28.52;73.42
51305;HTU21D;37392;50.964;6.952;2023-06-22T14:23:54;28.20;74.22
51305;HTU21D;37392;50.964;6.952;2023-06-22T14:26:20;27.91;75.18
51305;HTU21D;37392;50.964;6.952;2023-06-22T14:28:46;27.86;75.60
51305;HTU21D;37392;50.964;6.952;2023-06-22T14:31:18;27.85;75.41
51305;HTU21D;37392;50.964;6.952;2023-06-22T14:33:45;27.96;74.99
51305;HTU21D;37392;50.964;6.952;2023-06-22T14:36:13;28.30;74.27
51305;HTU21D;37392;50.964;6.952;2023-06-22T14:38:40;28.38;73.21
51305;HTU21D;37392;50.964;6.952;2023-06-22T14:41:05;28.26;73.83
51305;HTU21D;37392;50.964;6.952;2023-06-22T14:43:31;27.95;74.89
51305;HTU21D;37392;50.964;6.952;2023-06-22T14:45:57;27.88;75.78
51305;HTU21D;37392;50.964;6.952;2023-06-22T14:48:22;27.73;76.30
51305;HTU21D;37392;50.964;6.952;2023-06-22T14:50:48;27.60;76.89
51305;HTU21D;37392;50.964;6.952;2023-06-22T14:53:14;27.39;75.85
51305;HTU21D;37392;50.964;6.952;2023-06-22T14:55:40;27.26;76.81
51305;HTU21D;37392;50.964;6.952;2023-06-22T14:58:06;26.98;78.18
51305;HTU21D;37392;50.964;6.952;2023-06-22T15:00:31;26.12;90.73
51305;HTU21D;37392;50.964;6.952;2023-06-22T15:02:57;24.62;99.42
51305;HTU21D;37392;50.964;6.952;2023-06-22T15:05:24;23.79;107.59
51305;HTU21D;37392;50.964;6.952;2023-06-22T15:07:50;23.28;111.01
51305;HTU21D;37392;50.964;6.952;2023-06-22T15:10:15;22.97;114.80
51305;HTU21D;37392;50.964;6.952;2023-06-22T15:12:41;22.60;117.79
51305;HTU21D;37392;50.964;6.952;2023-06-22T15:15:07;22.36;118.20
51305;HTU21D;37392;50.964;6.952;2023-06-22T15:17:33;22.26;-4.08
51305;HTU21D;37392;50.964;6.952;2023-06-22T15:19:58;22.20;-2.72
51305;HTU21D;37392;50.964;6.952;2023-06-22T15:22:24;22.04;-1.68
51305;HTU21D;37392;50.964;6.952;2023-06-22T15:24:50;21.83;-0.23